createdAt,value
2022-09-27T00:01:40.722Z,319.60
2022-09-27T00:04:30.187Z,333.23
2022-09-27T00:07:18.310Z,355.60
2022-09-27T00:10:07.300Z,331.93
2022-09-27T00:12:55.733Z,326.07
2022-09-27T00:15:43.780Z,327.57
2022-09-27T00:18:32.937Z,335.33
2022-09-27T00:21:22.331Z,325.80
2022-09-27T00:24:13.436Z,318.13
2022-09-27T00:27:01.477Z,321.07
2022-09-27T00:29:49.789Z,336.50
2022-09-27T00:32:37.889Z,341.80
2022-09-27T00:35:25.935Z,347.60
2022-09-27T00:38:15.669Z,334.23
2022-09-27T00:41:03.858Z,333.43
2022-09-27T00:43:54.227Z,355.63
2022-09-27T00:46:47.404Z,345.73
2022-09-27T00:49:40.932Z,328.13
2022-09-27T00:52:34.227Z,344.57
2022-09-27T00:55:27.591Z,330.27
2022-09-27T00:58:19.623Z,331.60
2022-09-27T01:01:10.712Z,337.60
2022-09-27T01:04:04.821Z,351.87
2022-09-27T01:06:52.978Z,339.00
2022-09-27T01:09:41.615Z,342.93
2022-09-27T01:12:43.470Z,335.77
2022-09-27T01:15:41.090Z,339.23
2022-09-27T01:18:35.891Z,359.20
2022-09-27T01:21:38.480Z,348.90
2022-09-27T01:24:47.142Z,339.97
2022-09-27T01:28:10.667Z,354.47
2022-09-27T01:31:05.225Z,346.23
2022-09-27T01:34:03.618Z,338.33
2022-09-27T01:36:57.447Z,345.43
2022-09-27T01:39:53.081Z,328.93
2022-09-27T01:43:00.167Z,320.13
2022-09-27T01:45:56.615Z,351.47
2022-09-27T01:49:27.539Z,336.00
2022-09-27T01:52:19.782Z,340.93
2022-09-27T01:55:15.483Z,345.73
2022-09-27T01:58:28.396Z,339.90
2022-09-27T02:01:22.345Z,360.60
2022-09-27T02:04:18.412Z,353.53
2022-09-27T02:07:33.130Z,365.37
2022-09-27T02:10:24.684Z,345.47
2022-09-27T02:13:20.136Z,369.03
2022-09-27T02:16:23.653Z,365.43
2022-09-27T02:19:19.599Z,353.23
2022-09-27T02:22:16.250Z,343.37
2022-09-27T02:25:14.648Z,335.13
2022-09-27T02:28:11.673Z,344.73
2022-09-27T02:31:00.031Z,350.20
2022-09-27T02:33:59.096Z,321.70
2022-09-27T02:36:48.258Z,363.50
2022-09-27T02:39:36.481Z,363.93
2022-09-27T02:42:29.416Z,372.03
2022-09-27T02:45:19.658Z,342.87
2022-09-27T02:48:20.871Z,358.03
2022-09-27T02:51:21.285Z,359.00
2022-09-27T02:54:20.436Z,365.20
2022-09-27T02:57:57.928Z,339.03
2022-09-27T03:01:12.867Z,350.63
2022-09-27T03:04:39.596Z,326.63
2022-09-27T03:07:27.851Z,347.40
2022-09-27T03:10:19.413Z,359.00
2022-09-27T03:13:09.253Z,344.13
2022-09-27T03:16:01.414Z,369.87
2022-09-27T03:19:08.259Z,342.87
2022-09-27T03:22:14.626Z,363.77
2022-09-27T03:25:02.719Z,351.37
2022-09-27T03:27:51.141Z,336.73
2022-09-27T03:30:42.023Z,350.13
2022-09-27T03:33:31.224Z,331.03
2022-09-27T03:36:20.667Z,361.03
2022-09-27T03:39:08.683Z,341.10
2022-09-27T03:41:57.343Z,359.57
2022-09-27T03:44:45.394Z,352.20
2022-09-27T03:47:34.787Z,349.33
2022-09-27T03:50:22.918Z,356.57
2022-09-27T03:53:10.955Z,356.07
2022-09-27T03:55:58.960Z,350.93
2022-09-27T03:58:47.590Z,352.30
2022-09-27T04:01:38.801Z,334.07
2022-09-27T04:04:46.273Z,336.63
2022-09-27T04:07:34.401Z,355.97
2022-09-27T04:10:22.697Z,359.30
2022-09-27T04:13:11.881Z,338.80
2022-09-27T04:16:07.972Z,359.23
2022-09-27T04:19:12.703Z,348.70
2022-09-27T04:22:11.241Z,338.70
2022-09-27T04:24:59.533Z,381.00
2022-09-27T04:27:56.692Z,340.90
2022-09-27T04:30:46.668Z,362.90
2022-09-27T04:33:34.713Z,353.73
2022-09-27T04:36:36.149Z,361.83
2022-09-27T04:39:39.578Z,358.50
2022-09-27T04:42:28.781Z,358.07
2022-09-27T04:45:17.635Z,375.73
2022-09-27T04:48:05.771Z,360.83
2022-09-27T04:51:00.489Z,338.33
2022-09-27T04:53:48.947Z,334.30
2022-09-27T04:56:38.447Z,370.87
2022-09-27T04:59:27.758Z,366.10
2022-09-27T05:02:15.787Z,389.43
2022-09-27T05:05:18.819Z,367.80
2022-09-27T05:08:06.890Z,357.80
2022-09-27T05:11:17.544Z,341.03
2022-09-27T05:17:52.422Z,347.67
2022-09-27T05:20:59.326Z,328.07
2022-09-27T05:23:57.484Z,342.73
2022-09-27T05:26:46.786Z,375.63
2022-09-27T05:29:36.489Z,331.73
2022-09-27T05:32:29.923Z,347.87
2022-09-27T05:35:44.533Z,345.00
2022-09-27T05:38:33.607Z,338.57
2022-09-27T05:41:21.678Z,354.57
2022-09-27T05:44:09.951Z,367.17
2022-09-27T05:47:06.169Z,339.67
2022-09-27T05:49:56.040Z,352.63
2022-09-27T05:52:44.145Z,373.37
2022-09-27T05:55:32.810Z,360.50
2022-09-27T05:58:21.286Z,352.13
2022-09-27T06:01:21.673Z,359.57
2022-09-27T06:04:31.399Z,341.93
2022-09-27T06:07:51.347Z,323.73
2022-09-27T06:10:47.373Z,323.10
2022-09-27T06:13:37.015Z,344.60
2022-09-27T06:16:25.067Z,352.30
2022-09-27T06:19:13.155Z,346.23
2022-09-27T06:22:02.547Z,346.73
2022-09-27T06:25:00.083Z,328.17
2022-09-27T06:27:56.842Z,337.23
2022-09-27T06:30:51.502Z,315.83
2022-09-27T06:33:59.145Z,346.30
2022-09-27T06:36:51.550Z,338.97
2022-09-27T06:39:42.436Z,338.97
2022-09-27T06:42:53.029Z,326.93
2022-09-27T06:45:57.160Z,328.53
2022-09-27T06:49:05.084Z,329.57
2022-09-27T06:51:56.663Z,332.67
2022-09-27T06:54:46.021Z,321.67
2022-09-27T06:57:51.445Z,345.90
2022-09-27T07:00:39.939Z,333.37
2022-09-27T07:03:59.755Z,341.03
2022-09-27T07:07:17.199Z,335.27
2022-09-27T07:10:10.112Z,354.00
2022-09-27T07:12:59.954Z,333.40
2022-09-27T07:15:48.060Z,352.47
2022-09-27T07:18:36.782Z,366.80
2022-09-27T07:21:25.004Z,356.53
2022-09-27T07:24:13.317Z,360.77
2022-09-27T07:27:04.124Z,361.43
2022-09-27T07:29:52.517Z,355.00
2022-09-27T07:32:40.946Z,376.43
2022-09-27T07:35:31.385Z,359.87
2022-09-27T07:38:20.674Z,357.93
2022-09-27T07:41:10.928Z,357.27
2022-09-27T07:44:00.480Z,357.83
2022-09-27T07:46:50.557Z,341.60
2022-09-27T07:49:40.613Z,360.17
2022-09-27T07:52:44.374Z,325.27
2022-09-27T07:55:53.193Z,325.17
2022-09-27T07:58:44.920Z,340.83
2022-09-27T08:01:34.605Z,331.17
2022-09-27T08:04:22.803Z,320.50
2022-09-27T08:07:14.240Z,342.83
2022-09-27T08:10:05.190Z,319.20
2022-09-27T08:12:54.393Z,337.20
2022-09-27T08:15:42.390Z,335.73
2022-09-27T08:18:32.335Z,335.00
2022-09-27T08:21:32.447Z,348.10
2022-09-27T08:24:33.006Z,327.80
2022-09-27T08:27:32.920Z,314.13
2022-09-27T08:30:23.873Z,304.57
2022-09-27T08:33:12.010Z,331.80
2022-09-27T08:36:03.362Z,341.97
2022-09-27T08:38:51.493Z,319.95
2022-09-27T08:41:48.525Z,319.90
2022-09-27T08:44:44.966Z,306.90
2022-09-27T08:47:43.538Z,307.40
2022-09-27T08:50:38.960Z,320.40
2022-09-27T08:53:34.889Z,317.80
2022-09-27T08:56:24.155Z,316.17
2022-09-27T08:59:15.702Z,328.80
2022-09-27T09:02:05.919Z,304.60
2022-09-27T09:04:58.605Z,302.08
2022-09-27T09:08:04.287Z,308.52
2022-09-27T09:11:15.980Z,298.90
2022-09-27T09:14:22.220Z,286.77
2022-09-27T09:17:22.828Z,283.42
2022-09-27T09:20:54.912Z,285.35
2022-09-27T09:24:23.951Z,280.88
2022-09-27T09:27:22.810Z,284.65
2022-09-27T09:30:22.521Z,285.98
2022-09-27T09:33:22.954Z,280.65
2022-09-27T09:36:17.221Z,274.48
2022-09-27T09:39:11.192Z,302.90
2022-09-27T09:42:08.585Z,300.65
2022-09-27T09:45:02.948Z,306.77
2022-09-27T09:47:58.351Z,312.80
2022-09-27T09:50:49.430Z,302.08
2022-09-27T09:53:43.606Z,298.63
2022-09-27T09:56:47.521Z,302.50
2022-09-27T09:59:41.226Z,302.15
2022-09-27T10:02:36.116Z,311.27
2022-09-27T10:05:30.737Z,296.65
2022-09-27T10:08:24.606Z,302.73
2022-09-27T10:11:41.043Z,281.77
2022-09-27T10:14:33.531Z,294.77
2022-09-27T10:17:34.242Z,289.25
2022-09-27T10:20:29.750Z,300.23
2022-09-27T10:23:21.076Z,279.63
2022-09-27T10:26:40.282Z,279.73
2022-09-27T10:29:37.212Z,299.70
2022-09-27T10:32:31.351Z,280.23
2022-09-27T10:35:45.262Z,302.27
2022-09-27T10:38:55.949Z,283.75
2022-09-27T10:41:51.674Z,301.75
2022-09-27T10:44:52.946Z,290.48
2022-09-27T10:47:49.129Z,299.48
2022-09-27T10:50:59.531Z,285.40
2022-09-27T10:54:20.432Z,278.35
2022-09-27T10:57:22.581Z,287.95
2022-09-27T11:00:23.595Z,308.90
2022-09-27T11:03:17.453Z,309.55
2022-09-27T11:06:28.036Z,306.13
2022-09-27T11:09:20.287Z,298.58
2022-09-27T11:12:13.192Z,302.42
2022-09-27T11:15:06.026Z,309.83
2022-09-27T11:18:04.371Z,312.05
2022-09-27T11:20:58.136Z,312.85
2022-09-27T11:24:01.073Z,320.98
2022-09-27T11:27:00.964Z,324.42
2022-09-27T11:30:08.818Z,302.40
2022-09-27T11:33:34.109Z,315.60
2022-09-27T11:36:35.633Z,295.42
2022-09-27T11:39:36.280Z,308.70
2022-09-27T11:42:41.276Z,310.60
2022-09-27T11:46:14.193Z,305.30
2022-09-27T11:49:15.154Z,308.50
2022-09-27T11:52:16.742Z,298.55
2022-09-27T11:55:32.501Z,310.83
2022-09-27T11:58:27.989Z,295.40
2022-09-27T12:01:34.657Z,299.70
2022-09-27T12:04:38.335Z,275.05
2022-09-27T12:07:37.935Z,313.10
2022-09-27T12:10:26.269Z,292.48
2022-09-27T12:13:27.055Z,311.02
2022-09-27T12:16:18.753Z,320.65
2022-09-27T12:19:18.115Z,285.63
2022-09-27T12:22:53.912Z,286.95
2022-09-27T12:25:38.718Z,301.52
2022-09-27T12:28:41.854Z,307.00
2022-09-27T12:31:35.674Z,328.33
2022-09-27T12:34:31.720Z,312.23
2022-09-27T12:37:25.144Z,331.88
2022-09-27T12:40:20.161Z,323.90
2022-09-27T12:43:18.310Z,336.52
2022-09-27T12:46:25.364Z,312.35
2022-09-27T12:49:19.434Z,326.58
2022-09-27T12:52:12.230Z,314.65
2022-09-27T12:55:24.001Z,317.25
2022-09-27T12:58:25.219Z,316.95
2022-09-27T13:01:27.097Z,305.38
2022-09-27T13:04:38.073Z,296.60
2022-09-27T13:07:52.162Z,282.63
2022-09-27T13:10:49.694Z,285.27
2022-09-27T13:13:49.143Z,297.35
2022-09-27T13:16:44.638Z,306.60
2022-09-27T13:19:43.170Z,301.27
2022-09-27T13:22:38.626Z,321.95
2022-09-27T13:25:56.018Z,282.42
2022-09-27T13:29:24.853Z,263.67
2022-09-27T13:32:20.819Z,294.48
2022-09-27T13:35:29.011Z,294.77
2022-09-27T13:38:25.186Z,292.98
2022-09-27T13:41:18.056Z,266.67
2022-09-27T13:44:32.090Z,283.50
2022-09-27T13:47:32.169Z,281.77
2022-09-27T13:50:26.979Z,256.17
2022-09-27T13:53:31.057Z,300.83
2022-09-27T13:56:49.808Z,306.10
2022-09-27T13:59:44.244Z,302.52
2022-09-27T14:03:11.031Z,292.63
2022-09-27T14:06:08.456Z,297.58
2022-09-27T14:09:00.614Z,281.42
2022-09-27T14:11:53.561Z,267.52
2022-09-27T14:14:43.294Z,286.45
2022-09-27T14:17:33.023Z,279.00
2022-09-27T14:20:38.663Z,268.20
2022-09-27T14:23:29.876Z,267.17
2022-09-27T14:26:26.141Z,254.52
2022-09-27T14:29:17.652Z,271.92
2022-09-27T14:32:09.156Z,277.80
2022-09-27T14:35:32.603Z,276.00
2022-09-27T14:38:37.037Z,273.95
2022-09-27T14:41:37.157Z,292.02
2022-09-27T14:44:28.252Z,286.38
2022-09-27T14:47:19.815Z,299.20
2022-09-27T14:50:19.938Z,307.40
2022-09-27T14:53:24.493Z,283.05
2022-09-27T14:56:17.949Z,322.20
2022-09-27T14:59:11.643Z,302.08
2022-09-27T15:02:01.729Z,305.65
2022-09-27T15:04:51.661Z,309.80
2022-09-27T15:07:40.229Z,295.65
2022-09-27T15:10:31.761Z,319.40
2022-09-27T15:13:20.728Z,314.02
2022-09-27T15:16:13.070Z,311.00
2022-09-27T15:19:03.769Z,292.63
2022-09-27T15:21:51.663Z,305.33
2022-09-27T15:24:41.884Z,297.58
2022-09-27T15:27:31.435Z,298.80
2022-09-27T15:30:29.512Z,302.25
2022-09-27T15:33:21.388Z,311.25
2022-09-27T15:36:10.925Z,314.23
2022-09-27T15:39:09.044Z,309.63
2022-09-27T15:42:12.538Z,320.65
2022-09-27T15:45:01.781Z,314.75
2022-09-27T15:47:51.214Z,308.95
2022-09-27T15:50:40.983Z,305.85
2022-09-27T15:53:43.739Z,319.00
2022-09-27T15:56:31.788Z,300.80
2022-09-27T15:59:22.427Z,312.02
2022-09-27T16:02:17.440Z,294.33
2022-09-27T16:05:06.106Z,298.17
2022-09-27T16:07:54.352Z,288.17
2022-09-27T16:10:45.226Z,283.85
2022-09-27T16:13:33.540Z,255.40
2022-09-27T16:16:23.165Z,253.55
2022-09-27T16:19:12.517Z,308.63
2022-09-27T16:22:03.369Z,287.13
2022-09-27T16:24:51.261Z,304.33
2022-09-27T16:27:39.270Z,306.47
2022-09-27T16:30:29.767Z,312.40
2022-09-27T16:33:17.848Z,307.55
2022-09-27T16:36:14.258Z,321.57
2022-09-27T16:39:04.835Z,317.93
2022-09-27T16:41:53.152Z,304.03
2022-09-27T16:44:41.046Z,318.00
2022-09-27T16:47:29.125Z,328.85
2022-09-27T16:50:35.049Z,326.35
2022-09-27T16:53:24.382Z,332.70
2022-09-27T16:56:12.682Z,336.55
2022-09-27T16:59:02.878Z,318.55
2022-09-27T17:01:50.864Z,328.52
2022-09-27T17:04:38.766Z,328.52
2022-09-27T17:07:26.659Z,317.87
2022-09-27T17:10:17.098Z,311.15
2022-09-27T17:13:04.967Z,300.50
2022-09-27T17:15:53.334Z,313.27
2022-09-27T17:18:41.628Z,328.67
2022-09-27T17:21:30.401Z,332.20
2022-09-27T17:24:20.279Z,304.53
2022-09-27T17:27:09.544Z,330.10
2022-09-27T17:29:57.423Z,327.90
2022-09-27T17:32:45.372Z,319.20
2022-09-27T17:35:33.360Z,309.20
2022-09-27T17:38:21.534Z,310.27
2022-09-27T17:41:11.379Z,311.10
2022-09-27T17:44:02.242Z,316.30
2022-09-27T17:47:11.300Z,303.13
2022-09-27T17:50:16.788Z,303.17
2022-09-27T17:53:04.653Z,303.83
2022-09-27T17:55:53.886Z,313.13
2022-09-27T17:58:46.744Z,318.87
2022-09-27T18:01:38.168Z,325.07
2022-09-27T18:04:26.179Z,305.87
2022-09-27T18:07:14.048Z,311.40
2022-09-27T18:10:01.944Z,313.57
2022-09-27T18:12:49.902Z,306.00
2022-09-27T18:15:37.890Z,306.23
2022-09-27T18:18:28.119Z,287.77
2022-09-27T18:21:21.654Z,299.87
2022-09-27T18:24:10.854Z,290.80
2022-09-27T18:26:59.699Z,291.67
2022-09-27T18:29:48.334Z,284.07
2022-09-27T18:32:36.218Z,296.30
2022-09-27T18:35:28.479Z,281.67
2022-09-27T18:38:16.353Z,289.43
2022-09-27T18:41:08.518Z,269.30
2022-09-27T18:43:58.795Z,278.77
2022-09-27T18:46:47.108Z,300.17
2022-09-27T18:49:35.016Z,295.00
2022-09-27T18:52:24.394Z,291.77
2022-09-27T18:55:12.307Z,269.80
2022-09-27T18:58:00.334Z,286.67
2022-09-27T19:00:48.199Z,269.30
2022-09-27T19:03:36.366Z,266.53
2022-09-27T19:06:24.834Z,273.17
2022-09-27T19:09:14.153Z,271.03
2022-09-27T19:12:02.962Z,274.83
2022-09-27T19:14:52.419Z,283.17
2022-09-27T19:17:40.313Z,285.70
2022-09-27T19:20:29.563Z,272.17
2022-09-27T19:23:17.868Z,308.10
2022-09-27T19:26:09.827Z,293.87
2022-09-27T19:28:58.735Z,263.87
2022-09-27T19:31:46.783Z,271.80
2022-09-27T19:34:34.956Z,277.37
2022-09-27T19:37:22.813Z,277.47
2022-09-27T19:40:10.757Z,279.70
2022-09-27T19:43:00.049Z,271.23
2022-09-27T19:45:48.067Z,266.47
2022-09-27T19:48:36.737Z,272.17
2022-09-27T19:51:26.894Z,274.17
2022-09-27T19:54:15.050Z,273.03
2022-09-27T19:57:02.894Z,274.50
2022-09-27T19:59:52.125Z,259.60
2022-09-27T20:02:40.115Z,267.27
2022-09-27T20:05:28.004Z,275.40
2022-09-27T20:08:15.885Z,278.87
2022-09-27T20:11:06.761Z,273.13
2022-09-27T20:13:54.946Z,255.63
2022-09-27T20:16:44.212Z,267.13
2022-09-27T20:19:32.128Z,271.50
2022-09-27T20:22:20.183Z,257.90
2022-09-27T20:25:09.141Z,277.60
2022-09-27T20:27:57.042Z,270.07
2022-09-27T20:30:56.693Z,290.13
2022-09-27T20:33:49.465Z,250.57
2022-09-27T20:36:39.727Z,261.37
2022-09-27T20:39:27.657Z,257.60
2022-09-27T20:42:15.615Z,246.83
2022-09-27T20:45:03.994Z,267.10
2022-09-27T20:47:51.885Z,271.73
2022-09-27T20:50:41.151Z,259.23
2022-09-27T20:53:29.596Z,272.03
2022-09-27T20:56:19.448Z,280.13
2022-09-27T20:59:14.063Z,282.57
2022-09-27T21:02:02.832Z,261.07
2022-09-27T21:04:50.975Z,272.50
2022-09-27T21:07:40.197Z,286.10
2022-09-27T21:10:28.066Z,280.20
2022-09-27T21:13:16.008Z,293.23
2022-09-27T21:16:05.724Z,276.17
2022-09-27T21:18:55.253Z,299.43
2022-09-27T21:21:43.269Z,259.37
2022-09-27T21:24:32.511Z,278.57
2022-09-27T21:27:20.341Z,257.83
2022-09-27T21:30:09.328Z,271.97
2022-09-27T21:32:57.871Z,269.03
2022-09-27T21:35:51.007Z,270.37
2022-09-27T21:38:40.061Z,265.30
2022-09-27T21:41:29.451Z,271.17
2022-09-27T21:44:17.323Z,275.93
2022-09-27T21:47:05.324Z,276.53
2022-09-27T21:49:53.243Z,267.03
2022-09-27T21:52:41.156Z,288.97
2022-09-27T21:55:29.211Z,261.10
2022-09-27T21:58:18.765Z,258.90
2022-09-27T22:01:08.070Z,258.13
2022-09-27T22:03:56.906Z,252.40
2022-09-27T22:06:44.977Z,275.43
2022-09-27T22:09:32.875Z,279.80
2022-09-27T22:12:21.289Z,284.97
2022-09-27T22:15:11.080Z,282.57
2022-09-27T22:18:00.113Z,280.87
2022-09-27T22:20:48.143Z,281.77
2022-09-27T22:23:36.627Z,284.40
2022-09-27T22:26:26.631Z,287.20
2022-09-27T22:29:15.052Z,277.00
2022-09-27T22:32:04.412Z,291.90
2022-09-27T22:34:53.213Z,283.30
2022-09-27T22:37:41.259Z,281.47
2022-09-27T22:40:29.171Z,290.30
2022-09-27T22:43:17.289Z,301.33
2022-09-27T22:46:05.534Z,279.27
2022-09-27T22:48:55.640Z,277.73
2022-09-27T22:51:43.627Z,282.80
2022-09-27T22:54:31.527Z,284.97
2022-09-27T22:57:19.420Z,302.27
2022-09-27T23:00:08.220Z,295.47
2022-09-27T23:02:56.509Z,279.73
2022-09-27T23:05:45.921Z,298.60
2022-09-27T23:08:35.197Z,286.23
2022-09-27T23:11:23.763Z,276.53
2022-09-27T23:14:12.095Z,290.77
2022-09-27T23:17:00.266Z,293.33
2022-09-27T23:19:48.162Z,282.77
2022-09-27T23:22:37.441Z,300.57
2022-09-27T23:25:25.880Z,297.40
2022-09-27T23:28:14.165Z,291.13
2022-09-27T23:31:08.368Z,299.87
2022-09-27T23:33:57.895Z,296.57
2022-09-27T23:36:45.741Z,303.70
2022-09-27T23:39:34.986Z,301.50
2022-09-27T23:42:22.939Z,291.73
2022-09-27T23:45:11.143Z,288.77
2022-09-27T23:47:59.044Z,289.83
2022-09-27T23:50:48.152Z,317.70
2022-09-27T23:53:35.985Z,302.13
2022-09-27T23:56:25.813Z,286.90
2022-09-27T23:59:13.779Z,293.07
